Time;durP1;ratioP1;P1;durP2;ratioP2;P2;SDS_P1;SDS_P2;PMS_P1;PMS_P2;Temp;Humidity;BMP_temperature;BMP_pressure;BME280_temperature;BME280_humidity;BME280_pressure;Samples;Min_cycle;Max_cycle;Signal;HPM_P1;HPM_P2
2021/04/14 00:01:22;;;;;;;1.90;1.67;;;;;;;5.64;52.78;101531.13;10370213;28;20046;-60
2021/04/14 00:06:23;;;;;;;4.50;2.15;;;;;;;5.60;52.60;101526.00;10373071;28;20052;-58
2021/04/14 00:11:24;;;;;;;4.88;2.45;;;;;;;5.54;53.09;101524.47;10369621;28;20215;-61
2021/04/14 00:16:26;;;;;;;3.17;1.60;;;;;;;5.59;53.08;101522.50;10373859;28;20041;-59
2021/04/14 00:21:28;;;;;;;4.45;2.00;;;;;;;5.66;52.96;101521.34;10371471;28;20049;-59
2021/04/14 00:26:29;;;;;;;3.00;1.60;;;;;;;5.59;53.13;101514.59;10381692;28;20132;-57
2021/04/14 00:31:36;;;;;;;3.78;1.95;;;;;;;5.56;53.09;101503.28;10373600;28;20142;-62
2021/04/14 00:36:39;;;;;;;4.28;1.85;;;;;;;5.62;52.86;101516.25;10370830;28;20049;-60
2021/04/14 00:41:42;;;;;;;3.75;2.10;;;;;;;5.46;52.90;101521.25;10359935;28;20057;-60
2021/04/14 00:46:43;;;;;;;2.60;2.17;;;;;;;5.36;53.12;101514.63;10368814;28;20136;-58
2021/04/14 00:51:47;;;;;;;4.13;2.15;;;;;;;5.24;53.63;101506.25;10372446;28;20095;-60
2021/04/14 00:56:48;;;;;;;3.60;3.22;;;;;;;5.19;53.94;101510.00;10372517;28;20112;-57
2021/04/14 01:01:52;;;;;;;4.35;2.92;;;;;;;5.14;54.18;101518.09;10360886;28;20049;-61
2021/04/14 01:06:53;;;;;;;4.03;3.00;;;;;;;5.02;54.92;101511.47;10376157;28;20042;-59
2021/04/14 01:11:56;;;;;;;3.70;3.05;;;;;;;4.95;54.85;101494.16;10385590;28;20054;-58
2021/04/14 01:16:57;;;;;;;3.28;2.92;;;;;;;4.92;55.15;101500.41;10380064;28;20057;-57
2021/04/14 01:21:58;;;;;;;2.78;2.55;;;;;;;5.00;55.11;101509.81;10380820;28;20593;-61
2021/04/14 01:26:59;;;;;;;5.25;2.72;;;;;;;4.96;55.24;101506.44;10381827;28;20048;-58
2021/04/14 01:32:00;;;;;;;2.70;2.35;;;;;;;4.93;55.25;101512.69;10370336;28;20073;-57
2021/04/14 01:37:01;;;;;;;4.50;2.45;;;;;;;4.93;55.22;101512.69;10381731;28;20065;-59
2021/04/14 01:42:02;;;;;;;4.18;2.35;;;;;;;4.95;55.38;101512.63;10382122;28;20072;-59
2021/04/14 01:47:03;;;;;;;5.30;2.78;;;;;;;4.89;55.53;101504.94;10376823;28;20052;-62
2021/04/14 01:52:05;;;;;;;5.07;3.63;;;;;;;5.01;55.50;101516.81;10367496;28;20071;-59
2021/04/14 01:57:07;;;;;;;3.25;2.95;;;;;;;4.98;55.50;101509.00;10365968;28;20049;-59
2021/04/14 02:02:08;;;;;;;4.72;2.92;;;;;;;4.90;55.56;101515.44;10379711;28;20049;-60
2021/04/14 02:07:10;;;;;;;4.38;3.28;;;;;;;4.85;55.73;101517.38;10369769;28;20080;-59
2021/04/14 02:12:11;;;;;;;4.43;2.80;;;;;;;4.77;55.92;101511.50;10361951;28;20465;-58
2021/04/14 02:17:12;;;;;;;5.07;2.80;;;;;;;4.70;56.39;101507.38;10373073;28;20053;-62
2021/04/14 02:22:13;;;;;;;3.40;2.97;;;;;;;4.60;56.53;101517.41;10372012;28;20369;-61
2021/04/14 02:27:13;;;;;;;4.60;2.88;;;;;;;4.58;56.74;101512.19;10376692;28;20640;-60
2021/04/14 02:32:15;;;;;;;4.85;3.17;;;;;;;4.46;57.00;101501.19;10366452;28;20102;-61
2021/04/14 02:37:16;;;;;;;4.50;3.20;;;;;;;4.52;56.81;101512.41;10362600;28;20148;-61
2021/04/14 02:42:17;;;;;;;4.55;3.13;;;;;;;4.47;57.27;101511.69;10358807;28;20111;-60
2021/04/14 02:47:18;;;;;;;5.13;4.47;;;;;;;4.44;57.23;101503.88;10373051;28;20455;-60
2021/04/14 02:52:19;;;;;;;4.63;3.78;;;;;;;4.43;57.54;101508.31;10380720;28;20045;-62
2021/04/14 02:57:20;;;;;;;6.85;4.38;;;;;;;4.51;57.30;101504.53;10363805;28;20053;-60
2021/04/14 03:02:22;;;;;;;7.18;4.22;;;;;;;4.56;57.32;101507.88;10376166;28;20564;-60
2021/04/14 03:07:22;;;;;;;5.38;3.88;;;;;;;4.60;57.20;101494.50;10376037;28;20069;-60
2021/04/14 03:12:24;;;;;;;7.28;4.40;;;;;;;4.70;56.82;101496.81;10363133;28;20041;-60
2021/04/14 03:17:25;;;;;;;5.25;4.18;;;;;;;4.81;56.65;101494.66;10371993;28;20045;-60
2021/04/14 03:22:26;;;;;;;4.13;3.40;;;;;;;4.77;56.68;101498.31;10389133;28;20709;-60
2021/04/14 03:27:27;;;;;;;4.38;3.42;;;;;;;4.66;56.78;101484.69;10372179;28;20056;-60
2021/04/14 03:32:28;;;;;;;5.60;4.00;;;;;;;4.62;57.12;101485.69;10371743;28;20045;-60
2021/04/14 03:37:29;;;;;;;5.75;3.72;;;;;;;4.50;57.12;101489.63;10379523;28;20410;-61
2021/04/14 03:42:30;;;;;;;4.20;3.80;;;;;;;4.40;57.44;101483.84;10377587;28;20137;-62
2021/04/14 03:47:31;;;;;;;7.32;4.78;;;;;;;4.31;57.99;101492.03;10364519;28;20049;-60
2021/04/14 03:52:32;;;;;;;4.85;4.40;;;;;;;4.20;58.40;101498.56;10364143;28;20111;-61
2021/04/14 03:57:34;;;;;;;7.47;4.78;;;;;;;4.09;58.34;101487.50;10372939;28;20041;-61
2021/04/14 04:02:35;;;;;;;4.10;3.70;;;;;;;4.17;58.57;101496.00;10371417;28;20437;-61
2021/04/14 04:07:36;;;;;;;4.15;3.28;;;;;;;4.15;58.33;101479.38;10360632;28;20099;-61
2021/04/14 04:12:37;;;;;;;4.68;3.00;;;;;;;4.29;57.93;101491.25;10404526;22;20159;-66
2021/04/14 04:17:39;;;;;;;3.00;2.70;;;;;;;4.28;57.82;101474.56;10383945;28;20065;-66
2021/04/14 04:22:41;;;;;;;4.60;3.40;;;;;;;4.29;57.45;101493.88;10383717;28;20130;-67
2021/04/14 04:27:42;;;;;;;3.28;2.58;;;;;;;4.23;57.62;101495.81;10373097;28;21083;-66
2021/04/14 04:32:43;;;;;;;5.88;3.03;;;;;;;4.17;57.88;101497.78;10385727;28;20103;-67
2021/04/14 04:37:44;;;;;;;5.57;2.72;;;;;;;4.03;58.02;101491.19;10403975;28;20055;-67
2021/04/14 04:42:46;;;;;;;4.97;3.33;;;;;;;3.94;58.25;101490.66;10385485;28;20049;-67
2021/04/14 04:47:48;;;;;;;5.60;3.65;;;;;;;4.09;58.33;101503.31;10420477;28;20052;-67
2021/04/14 04:52:49;;;;;;;5.07;3.00;;;;;;;4.06;58.19;101493.72;10429409;28;20053;-66
2021/04/14 04:57:50;;;;;;;4.80;3.47;;;;;;;3.98;58.38;101495.78;10429997;28;20051;-66
2021/04/14 05:02:53;;;;;;;5.93;3.22;;;;;;;4.06;58.20;101514.81;10414766;28;20072;-66
2021/04/14 05:07:54;;;;;;;4.30;3.30;;;;;;;4.10;58.08;101515.59;10424077;28;20401;-66
2021/04/14 05:12:55;;;;;;;4.75;4.05;;;;;;;4.10;58.36;101519.97;10424927;28;20274;-66
2021/04/14 05:17:56;;;;;;;6.18;3.40;;;;;;;4.21;58.15;101534.53;10424015;28;20071;-65
2021/04/14 05:22:58;;;;;;;4.32;3.55;;;;;;;4.23;57.99;101527.44;10425456;28;20109;-64
2021/04/14 05:28:04;;;;;;;4.35;3.70;;;;;;;4.17;58.24;101527.63;10424220;28;20581;-67
2021/04/14 05:33:07;;;;;;;5.30;3.17;;;;;;;4.23;58.17;101532.72;10423325;28;20041;-67
2021/04/14 05:38:09;;;;;;;4.03;3.38;;;;;;;4.29;58.17;101536.06;10419663;28;20128;-66
2021/04/14 05:43:16;;;;;;;4.70;3.45;;;;;;;4.33;58.20;101540.31;10425952;28;20126;-66
2021/04/14 05:48:17;;;;;;;5.32;3.60;;;;;;;4.45;57.82;101542.53;10416854;28;20479;-65
2021/04/14 05:53:20;;;;;;;5.90;3.35;;;;;;;4.59;57.49;101539.41;10422059;28;20060;-65
2021/04/14 05:58:21;;;;;;;3.58;2.70;;;;;;;4.74;61.68;101548.56;10421670;28;20138;-68
2021/04/14 06:03:23;;;;;;;3.78;3.08;;;;;;;4.94;57.29;101527.59;10433767;28;20449;-66
2021/04/14 06:08:26;;;;;;;5.35;3.22;;;;;;;5.29;55.89;101550.97;10433439;28;20573;-66
2021/04/14 06:13:28;;;;;;;3.03;2.63;;;;;;;5.23;56.06;101546.78;10439602;28;20056;-67
2021/04/14 06:18:29;;;;;;;5.88;2.97;;;;;;;5.41;55.52;101533.81;10435479;28;20057;-66
2021/04/14 06:23:30;;;;;;;3.50;3.20;;;;;;;5.67;54.81;101535.41;10432158;28;20048;-66
2021/04/14 06:28:31;;;;;;;5.18;2.70;;;;;;;5.82;54.54;101558.59;10415794;28;20663;-67
2021/04/14 06:33:35;;;;;;;6.40;2.78;;;;;;;5.96;54.09;101552.75;10409949;28;20076;-67
2021/04/14 06:38:42;;;;;;;4.18;3.20;;;;;;;6.14;54.09;101566.16;10411333;28;20102;-67
2021/04/14 06:44:03;;;;;;;5.82;2.97;;;;;;;6.26;53.86;101562.16;10407149;28;20049;-65
2021/04/14 06:49:10;;;;;;;5.80;3.70;;;;;;;6.45;53.56;101584.25;10412274;28;20048;-65
2021/04/14 06:54:33;;;;;;;3.95;3.55;;;;;;;6.53;53.65;101570.72;10413416;28;20053;-66
2021/04/14 06:59:35;;;;;;;3.70;3.30;;;;;;;6.65;53.50;101561.38;10411609;28;20426;-66
2021/04/14 07:04:46;;;;;;;4.53;2.90;;;;;;;6.85;52.65;101574.63;10411565;28;20045;-66
2021/04/14 07:09:49;;;;;;;3.95;2.75;;;;;;;6.94;52.74;101577.81;10411997;28;20191;-67
2021/04/14 07:14:53;;;;;;;4.72;3.70;;;;;;;7.18;52.50;101575.84;10410087;28;20133;-66
2021/04/14 07:20:06;;;;;;;3.67;2.78;;;;;;;7.44;51.81;101574.66;10414041;28;20567;-67
2021/04/14 07:25:23;;;;;;;5.20;2.90;;;;;;;7.85;54.96;101571.84;10413806;28;21247;-67
2021/04/14 07:30:36;;;;;;;4.40;2.97;;;;;;;8.30;49.52;101577.59;10413771;28;20450;-67
2021/04/14 07:35:46;;;;;;;17.70;11.75;;;;;;;8.27;50.00;101572.47;10413050;28;20051;-67
2021/04/14 07:40:56;;;;;;;9.20;6.15;;;;;;;8.39;49.21;101573.63;10413832;28;20187;-66
2021/04/14 07:45:57;;;;;;;4.18;2.92;;;;;;;8.52;48.40;101550.03;10414762;28;20056;-66
2021/04/14 07:51:01;;;;;;;3.13;2.88;;;;;;;8.62;48.35;101567.22;10416864;28;20475;-66
2021/04/14 07:56:16;;;;;;;4.60;2.47;;;;;;;8.88;48.07;101563.19;10414356;28;20125;-66
2021/04/14 08:01:23;;;;;;;3.72;2.28;;;;;;;8.82;47.42;101552.91;10409569;28;20691;-69
2021/04/14 08:06:28;;;;;;;3.03;2.30;;;;;;;9.17;46.18;101535.09;10412260;28;20052;-66
2021/04/14 08:11:31;;;;;;;4.13;2.27;;;;;;;9.27;44.86;101558.50;10410763;28;20060;-67
2021/04/14 08:16:35;;;;;;;2.93;2.13;;;;;;;9.65;45.01;101555.53;10408171;28;20774;-65
2021/04/14 08:21:55;;;;;;;6.18;2.55;;;;;;;9.91;43.94;101554.91;10411017;28;20123;-66
2021/04/14 08:27:00;;;;;;;2.83;1.60;;;;;;;10.13;42.38;101542.19;10412201;28;20060;-67
2021/04/14 08:32:12;;;;;;;4.43;2.00;;;;;;;10.22;42.54;101546.97;10411568;28;20231;-67
2021/04/14 08:37:21;;;;;;;30.20;20.83;;;;;;;10.43;40.96;101544.88;10411476;28;20072;-66
2021/04/14 08:42:22;;;;;;;4.45;2.58;;;;;;;10.65;41.87;101549.78;10410812;28;20033;-67
2021/04/14 08:47:24;;;;;;;3.67;1.80;;;;;;;10.91;39.15;101545.53;10412302;28;20523;-67
2021/04/14 08:52:27;;;;;;;2.60;1.90;;;;;;;11.19;39.98;101535.81;10410653;28;20530;-67
2021/04/14 08:57:28;;;;;;;2.38;1.20;;;;;;;11.29;38.08;101530.78;10413109;28;20107;-67
2021/04/14 09:02:29;;;;;;;2.42;1.45;;;;;;;11.22;38.10;101532.13;10412354;28;20124;-67
2021/04/14 09:07:34;;;;;;;4.32;1.85;;;;;;;11.08;37.89;101530.28;10411169;28;20053;-66
2021/04/14 09:12:42;;;;;;;3.22;1.40;;;;;;;11.67;37.49;101525.66;10408685;28;20198;-66
2021/04/14 09:17:54;;;;;;;2.63;1.58;;;;;;;11.93;36.90;101522.25;10411452;28;20049;-67
2021/04/14 09:23:12;;;;;;;3.25;1.20;;;;;;;11.76;35.75;101520.69;10409625;28;20120;-66
2021/04/14 09:28:29;;;;;;;5.85;2.47;;;;;;;11.90;35.23;101523.28;10413557;28;20506;-65
2021/04/14 09:33:45;;;;;;;2.80;1.60;;;;;;;12.28;34.60;101517.25;10419350;28;20079;-66
2021/04/14 09:38:49;;;;;;;3.50;1.90;;;;;;;12.62;34.05;101493.56;10418178;28;20091;-66
2021/04/14 09:43:52;;;;;;;2.10;1.83;;;;;;;13.08;31.72;101490.31;10416984;28;20152;-66
2021/04/14 09:48:54;;;;;;;3.05;2.20;;;;;;;13.28;32.08;101474.66;10417357;28;20048;-66
2021/04/14 09:54:00;;;;;;;1.50;1.23;;;;;;;13.40;32.13;101495.19;10417725;28;20048;-66
2021/04/14 09:59:04;;;;;;;2.47;1.98;;;;;;;13.80;29.82;101470.00;10415095;28;20068;-65
2021/04/14 10:04:18;;;;;;;5.28;1.83;;;;;;;12.95;29.56;101484.13;10415149;28;20100;-66
2021/04/14 10:09:29;;;;;;;4.00;1.90;;;;;;;13.44;29.75;101477.94;10424467;28;20130;-65
2021/04/14 10:14:41;;;;;;;4.10;1.90;;;;;;;14.70;27.42;101464.06;10421413;23;20413;-72
2021/04/14 10:19:42;;;;;;;1.75;1.50;;;;;;;14.94;26.34;101445.16;10273782;28;20085;-72
2021/04/14 10:24:43;;;;;;;3.60;1.60;;;;;;;20.55;18.46;101439.75;10293754;28;20150;-70
2021/04/14 10:29:44;;;;;;;4.00;3.42;;;;;;;24.20;17.38;101436.16;10287792;28;20047;-71
2021/04/14 10:34:46;;;;;;;2.85;1.80;;;;;;;22.91;16.98;101430.38;10293805;28;20099;-72
2021/04/14 10:39:51;;;;;;;4.45;2.83;;;;;;;18.62;20.10;101405.78;10246536;28;20081;-71
2021/04/14 10:45:11;;;;;;;5.70;5.18;;;;;;;18.44;20.43;101405.72;10170850;28;20041;-74
2021/04/14 10:50:40;;;;;;;3.22;2.00;;;;;;;18.02;20.75;101403.41;10211852;28;20120;-71
2021/04/14 10:55:52;;;;;;;2.72;2.30;;;;;;;25.03;14.45;101404.25;10150046;28;20073;-72
2021/04/14 11:01:14;;;;;;;3.67;1.58;;;;;;;27.76;12.72;101391.72;10186631;28;20138;-71
2021/04/14 11:06:15;;;;;;;3.25;1.80;;;;;;;22.05;17.15;101383.94;10252012;28;20046;-75
2021/04/14 11:11:16;;;;;;;3.25;1.67;;;;;;;17.97;19.38;101386.81;10280313;28;20146;-72
2021/04/14 11:16:18;;;;;;;4.38;1.80;;;;;;;24.47;15.18;101385.69;10275579;28;20478;-71
2021/04/14 11:21:30;;;;;;;4.57;4.05;;;;;;;29.16;10.88;101366.72;10268670;28;20050;-70
2021/04/14 11:26:35;;;;;;;2.58;1.55;;;;;;;30.49;9.16;101362.03;10291906;28;20057;-72
2021/04/14 11:31:39;;;;;;;2.83;1.40;;;;;;;31.10;8.21;101358.53;10293255;28;20061;-72
2021/04/14 11:36:40;;;;;;;2.13;1.15;;;;;;;32.89;7.65;101361.03;10275771;28;20061;-72
2021/04/14 11:41:46;;;;;;;;;;;;;;;32.62;8.14;101347.81;10287292;28;20042;-73
2021/04/14 11:46:58;;;;;;;2.75;1.48;;;;;;;32.16;8.33;101355.94;10265636;28;20001;-74
2021/04/14 11:52:23;;;;;;;3.03;1.15;;;;;;;32.81;8.68;101339.41;10273273;28;20137;-73
2021/04/14 11:57:29;;;;;;;1.98;1.10;;;;;;;31.29;8.85;101335.38;10269836;28;20213;-74
2021/04/14 12:02:30;;;;;;;2.13;1.25;;;;;;;30.46;9.91;101336.91;10269275;28;20141;-73
2021/04/14 12:07:32;;;;;;;2.95;1.27;;;;;;;32.20;8.40;101334.25;10273414;28;20428;-72
2021/04/14 12:12:34;;;;;;;;;;;;;;;24.13;13.23;101335.41;10280115;28;20504;-70
2021/04/14 12:17:36;;;;;;;3.10;1.63;;;;;;;18.40;18.61;101333.38;10277316;28;19937;-73
2021/04/14 12:22:37;;;;;;;2.97;1.45;;;;;;;16.35;20.96;101329.66;10273227;28;20122;-71
2021/04/14 12:27:39;;;;;;;2.47;1.63;;;;;;;15.45;22.72;101331.06;10275061;28;20059;-72
2021/04/14 12:32:40;;;;;;;3.70;1.77;;;;;;;14.76;23.06;101334.06;10276070;28;20054;-73
2021/04/14 12:37:43;;;;;;;3.30;2.10;;;;;;;14.73;23.58;101320.94;10282465;28;20394;-71
2021/04/14 12:42:45;;;;;;;3.40;2.17;;;;;;;15.35;24.05;101322.06;10271870;28;20039;-72
2021/04/14 12:47:47;;;;;;;3.35;2.33;;;;;;;15.70;23.27;101318.22;10280532;28;20092;-71
2021/04/14 12:52:53;;;;;;;4.35;2.13;;;;;;;15.08;24.22;101317.19;10283669;28;20055;-72
2021/04/14 12:57:59;;;;;;;3.45;2.13;;;;;;;15.08;23.87;101307.28;10281079;28;20070;-70
2021/04/14 13:03:08;;;;;;;3.47;1.73;;;;;;;13.99;24.71;101308.88;10275745;28;20500;-71
2021/04/14 13:08:12;;;;;;;2.88;1.55;;;;;;;15.72;22.67;101316.28;10276161;28;20126;-71
2021/04/14 13:13:13;;;;;;;4.22;2.25;;;;;;;16.33;21.40;101303.88;10291077;28;20062;-72
2021/04/14 13:18:32;;;;;;;1.38;1.25;;;;;;;15.88;19.61;101288.97;10291793;28;20046;-70
2021/04/14 13:23:40;;;;;;;3.47;1.50;;;;;;;15.99;21.17;101290.72;10296769;28;20128;-71
2021/04/14 13:29:02;;;;;;;2.28;1.08;;;;;;;16.37;19.36;101286.53;10286422;28;20054;-73
2021/04/14 13:34:14;;;;;;;2.00;1.38;;;;;;;16.36;18.78;101284.81;10307318;28;20123;-74
2021/04/14 13:39:30;;;;;;;1.85;1.25;;;;;;;16.29;18.61;101273.78;10305804;28;20131;-72
2021/04/14 13:45:03;;;;;;;1.30;0.90;;;;;;;15.95;18.85;101268.66;10276470;28;20598;-73
2021/04/14 13:50:22;;;;;;;1.80;1.23;;;;;;;15.50;20.20;101258.22;10280721;28;20070;-72
2021/04/14 13:55:23;;;;;;;1.90;0.90;;;;;;;15.22;20.33;101265.06;10278194;28;20074;-72
2021/04/14 14:00:29;;;;;;;3.35;1.42;;;;;;;14.12;21.76;101256.03;10291737;28;20513;-72
2021/04/14 14:05:38;;;;;;;2.00;1.35;;;;;;;14.66;24.97;101253.56;10294702;28;20050;-74
2021/04/14 14:10:53;;;;;;;2.38;1.10;;;;;;;14.37;25.14;101248.72;10273741;28;20050;-73
2021/04/14 14:16:09;;;;;;;2.47;1.50;;;;;;;13.93;26.46;101261.13;10279466;28;20084;-71
2021/04/14 14:21:15;;;;;;;2.03;1.40;;;;;;;14.24;25.63;101253.38;10293973;28;20069;-72
2021/04/14 14:26:21;;;;;;;2.40;1.25;;;;;;;13.75;25.78;101240.22;10277265;28;20062;-72
2021/04/14 14:31:23;;;;;;;3.33;1.30;;;;;;;13.16;26.60;101251.00;10275819;28;20051;-71
2021/04/14 14:36:41;;;;;;;4.05;1.20;;;;;;;13.05;26.77;101246.47;10271421;28;20467;-71
2021/04/14 14:41:45;;;;;;;3.75;0.70;;;;;;;12.64;25.31;101242.34;10293732;28;20132;-70
2021/04/14 14:46:47;;;;;;;2.92;0.90;;;;;;;12.52;25.04;101246.78;10278680;28;20066;-72
2021/04/14 14:51:48;;;;;;;1.08;0.30;;;;;;;12.37;25.06;101238.94;10291173;28;20046;-74
2021/04/14 14:56:58;;;;;;;1.13;0.40;;;;;;;12.05;26.00;101237.72;10273608;28;20051;-72
2021/04/14 15:01:59;;;;;;;1.52;0.47;;;;;;;12.52;25.75;101244.09;10280124;28;20563;-71
2021/04/14 15:07:00;;;;;;;1.85;0.40;;;;;;;12.47;25.37;101238.25;10269800;28;20054;-71
2021/04/14 15:12:01;;;;;;;1.45;0.30;;;;;;;12.30;25.36;101243.00;10277255;28;20639;-71
2021/04/14 15:17:02;;;;;;;1.75;0.60;;;;;;;12.08;25.23;101234.81;10277114;28;20435;-70
2021/04/14 15:22:03;;;;;;;1.95;0.32;;;;;;;11.96;25.31;101224.06;10277385;28;20058;-73
2021/04/14 15:27:06;;;;;;;0.57;0.30;;;;;;;12.03;25.66;101228.00;10276455;28;21991;-70
2021/04/14 15:32:08;;;;;;;0.82;0.73;;;;;;;11.81;30.03;101225.09;10279438;28;20223;-71
2021/04/14 15:37:09;;;;;;;1.98;0.70;;;;;;;11.59;33.86;101221.28;10276883;28;20585;-71
2021/04/14 15:42:10;;;;;;;1.15;0.70;;;;;;;11.46;34.78;101239.94;10280236;28;20066;-70
2021/04/14 15:47:12;;;;;;;1.70;1.15;;;;;;;11.19;37.18;101249.81;10274687;28;20058;-72
2021/04/14 15:52:13;;;;;;;1.38;0.70;;;;;;;10.87;37.78;101232.34;10276690;28;20058;-71
2021/04/14 15:57:25;;;;;;;2.13;0.90;;;;;;;10.90;36.56;101240.16;10279090;28;20129;-70
2021/04/14 16:02:36;;;;;;;3.15;0.88;;;;;;;10.75;37.42;101244.66;10293527;28;20576;-75
2021/04/14 16:07:37;;;;;;;1.27;0.75;;;;;;;11.11;36.73;101248.50;10327263;28;20054;-69
2021/04/14 16:12:38;;;;;;;1.02;0.35;;;;;;;11.17;36.16;101249.94;10277328;28;20058;-71
2021/04/14 16:17:39;;;;;;;2.15;0.60;;;;;;;11.18;35.65;101253.44;10275142;28;20047;-71
2021/04/14 16:22:40;;;;;;;1.27;0.60;;;;;;;11.23;35.32;101251.28;10280401;28;20063;-73
2021/04/14 16:27:41;;;;;;;3.40;0.80;;;;;;;11.27;35.31;101256.34;10315480;23;20053;-59
2021/04/14 16:32:42;;;;;;;2.38;0.70;;;;;;;11.12;35.34;101244.03;10306057;28;20053;-59
2021/04/14 16:37:43;;;;;;;3.65;1.30;;;;;;;11.04;35.73;101244.53;10295345;28;20058;-59
2021/04/14 16:42:46;;;;;;;2.15;0.68;;;;;;;10.37;36.21;101223.19;10303664;28;20123;-60
2021/04/14 16:47:49;;;;;;;1.70;0.90;;;;;;;10.57;36.84;101233.41;10298598;28;20124;-59
2021/04/14 16:52:51;;;;;;;2.35;0.90;;;;;;;10.56;36.82;101242.34;10298605;28;20072;-59
2021/04/14 16:57:52;;;;;;;2.92;1.00;;;;;;;10.35;37.66;101233.09;10300855;28;20070;-59
2021/04/14 17:02:53;;;;;;;3.17;0.82;;;;;;;10.13;38.19;101218.44;10296362;28;20516;-59
2021/04/14 17:07:55;;;;;;;2.70;1.70;;;;;;;10.03;38.07;101241.28;10294550;28;20137;-62
2021/04/14 17:13:04;;;;;;;4.55;1.63;;;;;;;9.91;38.78;101219.78;10296986;28;20581;-59
2021/04/14 17:18:05;;;;;;;5.32;4.47;;;;;;;10.06;37.88;101231.28;10292448;28;20045;-60
2021/04/14 17:23:07;;;;;;;1.80;1.35;;;;;;;9.84;35.34;101204.31;10298541;28;20080;-62
2021/04/14 17:28:09;;;;;;;2.65;0.60;;;;;;;9.93;35.31;101232.16;10299508;28;20057;-60
2021/04/14 17:33:11;;;;;;;1.50;0.95;;;;;;;9.88;35.98;101227.97;10294786;28;20240;-61
2021/04/14 17:38:14;;;;;;;2.92;1.00;;;;;;;9.71;37.24;101228.13;10295422;28;20065;-61
2021/04/14 17:43:16;;;;;;;2.53;1.23;;;;;;;9.67;37.92;101232.81;10294570;28;20498;-56
2021/04/14 17:48:17;;;;;;;1.77;1.27;;;;;;;9.65;38.35;101229.41;10295844;28;20085;-59
2021/04/14 17:53:18;;;;;;;1.80;1.17;;;;;;;9.58;38.22;101233.38;10295677;28;20100;-58
2021/04/14 17:58:20;;;;;;;1.95;1.33;;;;;;;9.41;38.00;101225.56;10301049;28;20053;-58
2021/04/14 18:03:21;;;;;;;1.55;0.80;;;;;;;9.28;37.88;101220.13;10299886;28;20180;-58
2021/04/14 18:08:23;;;;;;;1.48;0.88;;;;;;;9.30;38.55;101240.31;10305838;28;20077;-59
2021/04/14 18:13:23;;;;;;;1.10;0.55;;;;;;;9.19;39.39;101254.25;10297844;28;20058;-60
2021/04/14 18:18:34;;;;;;;2.30;0.70;;;;;;;9.05;39.77;101256.00;10304486;28;20058;-59
2021/04/14 18:23:36;;;;;;;1.73;1.00;;;;;;;8.96;40.34;101262.69;10336294;28;20041;-57
2021/04/14 18:28:39;;;;;;;1.67;0.80;;;;;;;8.81;40.63;101265.31;10320210;28;20140;-58
2021/04/14 18:33:42;;;;;;;1.02;0.80;;;;;;;8.78;40.89;101270.78;10347275;28;20632;-61
2021/04/14 18:38:43;;;;;;;2.08;1.17;;;;;;;8.81;41.09;101275.94;10343242;28;21026;-61
2021/04/14 18:43:44;;;;;;;3.08;1.63;;;;;;;8.77;42.12;101286.81;10346431;28;20560;-62
2021/04/14 18:48:45;;;;;;;2.05;1.08;;;;;;;8.63;43.44;101279.59;10341408;28;20041;-61
2021/04/14 18:53:45;;;;;;;3.40;2.20;;;;;;;8.60;44.26;101298.34;10345358;28;20045;-59
2021/04/14 18:58:46;;;;;;;3.80;3.13;;;;;;;8.42;44.83;101303.72;10347238;28;20430;-58
2021/04/14 19:03:47;;;;;;;4.05;2.00;;;;;;;8.33;45.02;101306.84;10340447;28;20045;-59
2021/04/14 19:08:48;;;;;;;3.25;2.80;;;;;;;8.18;45.58;101297.06;10341484;28;20053;-60
2021/04/14 19:13:49;;;;;;;8.18;6.53;;;;;;;8.16;45.13;101312.22;10345145;28;20417;-58
2021/04/14 19:18:51;;;;;;;3.72;3.42;;;;;;;7.76;45.01;101249.78;10340885;28;20055;-58
2021/04/14 19:23:52;;;;;;;2.60;1.00;;;;;;;7.96;45.30;101312.34;10343664;28;20132;-59
2021/04/14 19:28:54;;;;;;;2.22;1.63;;;;;;;7.86;45.98;101318.22;10331793;28;20053;-59
2021/04/14 19:33:56;;;;;;;1.55;1.15;;;;;;;7.68;47.11;101310.25;10340849;28;20403;-58
2021/04/14 19:38:57;;;;;;;2.17;1.95;;;;;;;7.74;47.58;101317.88;10331438;28;20057;-57
2021/04/14 19:43:58;;;;;;;2.25;1.85;;;;;;;7.65;48.15;101336.91;10336028;28;20057;-58
2021/04/14 19:49:00;;;;;;;4.72;3.25;;;;;;;7.52;48.66;101343.78;10332843;28;20048;-58
2021/04/14 19:54:01;;;;;;;2.58;1.60;;;;;;;7.55;49.41;101338.31;10338279;28;20797;-61
2021/04/14 19:59:02;;;;;;;2.45;1.63;;;;;;;7.44;50.06;101344.16;10342115;28;20549;-62
2021/04/14 20:04:04;;;;;;;4.93;3.75;;;;;;;6.96;50.95;101303.28;10322896;28;20053;-57
2021/04/14 20:09:05;;;;;;;3.30;2.33;;;;;;;7.28;51.05;101337.91;10308562;28;20041;-58
2021/04/14 20:14:06;;;;;;;7.55;6.95;;;;;;;7.25;51.41;101330.97;10315937;28;20067;-59
2021/04/14 20:19:08;;;;;;;3.28;2.00;;;;;;;6.96;51.99;101341.19;10312978;28;20287;-60
2021/04/14 20:24:09;;;;;;;2.55;2.35;;;;;;;6.93;52.38;101322.81;10331874;28;20072;-57
2021/04/14 20:29:10;;;;;;;3.40;3.10;;;;;;;6.97;52.40;101337.63;10318181;28;20070;-56
2021/04/14 20:34:13;;;;;;;3.35;2.63;;;;;;;6.89;52.26;101337.13;10333758;28;20061;-59
2021/04/14 20:39:14;;;;;;;4.20;3.28;;;;;;;6.85;52.33;101330.28;10333629;28;20128;-60
2021/04/14 20:44:16;;;;;;;5.65;2.90;;;;;;;6.20;53.85;101325.31;10334852;28;20045;-58
2021/04/14 20:49:18;;;;;;;3.88;2.58;;;;;;;6.44;54.19;101330.41;10336479;28;20049;-58
2021/04/14 20:54:19;;;;;;;2.63;1.80;;;;;;;6.23;54.52;101333.13;10333861;28;20131;-57
2021/04/14 20:59:21;;;;;;;4.53;3.90;;;;;;;6.31;54.82;101330.97;10337070;28;20800;-56
2021/04/14 21:04:22;;;;;;;3.90;1.95;;;;;;;6.15;55.17;101329.94;10329827;28;20188;-58
2021/04/14 21:09:23;;;;;;;2.88;1.95;;;;;;;6.37;53.98;101341.28;10335789;28;20081;-58
2021/04/14 21:14:24;;;;;;;2.92;1.65;;;;;;;6.16;54.30;101316.66;10336319;28;20536;-58
2021/04/14 21:19:25;;;;;;;2.60;1.42;;;;;;;6.07;54.19;101284.50;10337224;28;20052;-59
2021/04/14 21:24:27;;;;;;;3.03;1.80;;;;;;;6.39;53.83;101330.63;10334579;28;20487;-57
2021/04/14 21:29:29;;;;;;;2.97;2.13;;;;;;;6.17;54.03;101333.38;10337925;28;20191;-59
2021/04/14 21:34:30;;;;;;;3.17;2.15;;;;;;;6.10;54.23;101331.94;10340858;28;20152;-57
2021/04/14 21:39:31;;;;;;;4.03;1.92;;;;;;;6.00;53.89;101305.94;10337299;28;20053;-57
2021/04/14 21:44:32;;;;;;;2.63;2.15;;;;;;;6.22;54.08;101330.53;10334445;28;20137;-58
2021/04/14 21:49:33;;;;;;;3.90;2.28;;;;;;;6.15;53.96;101329.94;10340024;28;20052;-59
2021/04/14 21:54:34;;;;;;;3.13;2.30;;;;;;;6.05;54.19;101331.28;10333026;28;20120;-59
2021/04/14 21:59:35;;;;;;;1.92;1.50;;;;;;;6.08;54.11;101329.38;10335177;28;20553;-61
2021/04/14 22:04:36;;;;;;;2.00;1.73;;;;;;;5.78;54.56;101320.97;10331886;28;20049;-58
2021/04/14 22:09:37;;;;;;;2.58;1.65;;;;;;;5.41;56.05;101314.63;10337425;28;20064;-57
2021/04/14 22:14:38;;;;;;;4.40;2.10;;;;;;;5.52;56.11;101320.28;10338736;28;20168;-58
2021/04/14 22:19:39;;;;;;;2.60;2.13;;;;;;;5.64;55.87;101322.44;10337209;28;20050;-58
2021/04/14 22:24:43;;;;;;;2.92;1.88;;;;;;;5.74;55.91;101328.16;10335406;28;20060;-57
2021/04/14 22:29:45;;;;;;;2.78;2.05;;;;;;;5.70;56.32;101331.84;10337956;23;20056;-61
2021/04/14 22:34:56;;;;;;;3.78;2.38;;;;;;;5.64;56.74;101335.66;10314093;28;20515;-58
2021/04/14 22:39:57;;;;;;;5.22;2.30;;;;;;;5.55;56.52;101330.72;10319761;28;20513;-59
2021/04/14 22:44:58;;;;;;;2.30;2.10;;;;;;;5.52;57.39;101335.28;10326298;28;20046;-60
2021/04/14 22:49:59;;;;;;;2.60;2.28;;;;;;;5.46;57.23;101332.00;10344161;28;20053;-59
2021/04/14 22:55:00;;;;;;;3.67;2.40;;;;;;;5.51;57.20;101342.38;10375224;28;20510;-59
2021/04/14 23:00:07;;;;;;;2.92;2.35;;;;;;;5.63;56.88;101340.97;10378830;28;20049;-60
2021/04/14 23:05:09;;;;;;;3.22;2.45;;;;;;;5.63;57.17;101340.97;10376180;28;20494;-59
2021/04/14 23:10:13;;;;;;;3.90;2.90;;;;;;;5.50;57.70;101338.00;10406892;28;20072;-60
2021/04/14 23:15:14;;;;;;;2.80;2.30;;;;;;;5.43;58.28;101347.09;10375890;28;20503;-59
2021/04/14 23:20:17;;;;;;;2.55;2.35;;;;;;;5.28;58.58;101332.75;10379450;28;20064;-61
2021/04/14 23:25:18;;;;;;;2.88;2.67;;;;;;;5.35;58.79;101342.13;10375377;28;20325;-61